»·PEaware :: N27JP KLAX-KSNA

N27JP :: KLAX-KSNA

FLIGHT INFORMATION

Flight Status: Arrived
Operator: Privately registered:
United States
More flights under this callsign
Pilot: Weston J. (31543)
Aircraft: CESSNA 172 SKYHAWK
(C172)
More flights by this aircraft type
Origin: KLAX Los Angeles Intl
United States
Destination: KSNA John Wayne-Orange Co
United States
More flights between these airports :: More routes between these airports
Route: SLI8 SLI
File this flight plan on PilotEdge
Remarks: I6 Practice
Altitude:
(Current/Filed)
4,000ft
Speed:
(Current/Filed)
110kts
Departed: 28-Dec-20 02:24 PM
Arrived: 28-Dec-20 03:07 PM
Distance/Time
Traveled:
31nm/0:43
Distance/Time
To Go:
Arrived

Flight Plot

Page will automatically refresh every two minutes.

Flight plan parsing failed; only flown route is shown


Map Options




Map Legend


Flown Route
Filed Route
Departure Airport
Arrival Airport
Navaid (VOR, NDB)
Fix

Horizontal Profiles

Position Reports

Time Latitude Longitude Heading Altitude Ground
Speed
28-Dec-20 13:58 33.933207 -118.397463 264 118ft 0kts
28-Dec-20 13:59 33.933207 -118.397463 264 118ft 0kts
28-Dec-20 14:00 33.933207 -118.397463 264 118ft 0kts
28-Dec-20 14:01 33.933207 -118.397463 264 118ft 0kts
28-Dec-20 14:02 33.933207 -118.397463 264 118ft 0kts
28-Dec-20 14:03 33.933207 -118.397463 264 118ft 0kts
28-Dec-20 14:04 33.933207 -118.397463 264 118ft 0kts
28-Dec-20 14:05 33.933207 -118.397463 264 118ft 0kts
28-Dec-20 14:06 33.933207 -118.397463 264 118ft 0kts
28-Dec-20 14:07 33.933207 -118.397463 264 118ft 0kts
28-Dec-20 14:09 33.933207 -118.397463 264 118ft 0kts
28-Dec-20 14:10 33.933207 -118.397463 264 118ft 0kts
28-Dec-20 14:11 33.933207 -118.397463 264 118ft 0kts
28-Dec-20 14:12 33.933207 -118.397463 264 118ft 0kts
28-Dec-20 14:13 33.933207 -118.397463 264 118ft 0kts
28-Dec-20 14:14 33.933207 -118.397463 264 118ft 0kts
28-Dec-20 14:15 33.933207 -118.397463 264 118ft 0kts
28-Dec-20 14:16 33.933207 -118.397463 264 118ft 0kts
28-Dec-20 14:17 33.933201 -118.397526 263 118ft 0kts
28-Dec-20 14:18 33.933516 -118.397969 336 117ft 9kts
28-Dec-20 14:19 33.934869 -118.394860 84 107ft 20kts
28-Dec-20 14:20 33.935619 -118.387609 81 103ft 23kts
28-Dec-20 14:21 33.936434 -118.382911 2 100ft 0kts
28-Dec-20 14:22 33.936434 -118.382911 2 100ft 0kts
28-Dec-20 14:23 33.936580 -118.382905 1 100ft 4kts
28-Dec-20 14:24 33.936708 -118.387480 255 103ft 69kts
28-Dec-20 14:24 33.934472 -118.412255 267 671ft 94kts
28-Dec-20 14:26 33.925384 -118.445801 211 1419ft 93kts
28-Dec-20 14:27 33.902730 -118.460202 175 2112ft 93kts
28-Dec-20 14:27 33.881042 -118.456131 169 2683ft 95kts
28-Dec-20 14:28 33.856434 -118.450391 169 3484ft 89kts
28-Dec-20 14:29 33.832120 -118.443654 170 4020ft 101kts
28-Dec-20 14:30 33.803136 -118.435162 169 4019ft 109kts
28-Dec-20 14:31 33.773461 -118.424450 143 4032ft 116kts
28-Dec-20 14:32 33.750593 -118.396617 109 4032ft 120kts
28-Dec-20 14:33 33.756934 -118.356945 78 4022ft 122kts
28-Dec-20 14:34 33.761292 -118.316610 83 4023ft 121kts
28-Dec-20 14:35 33.764500 -118.276092 82 4021ft 120kts
28-Dec-20 14:36 33.768194 -118.240647 81 4018ft 119kts
28-Dec-20 14:37 33.772245 -118.199388 84 4015ft 116kts
28-Dec-20 14:38 33.775685 -118.161436 84 4012ft 113kts
28-Dec-20 14:39 33.779344 -118.124674 78 4011ft 111kts
28-Dec-20 14:40 33.785519 -118.091290 90 4004ft 108kts
28-Dec-20 14:41 33.786119 -118.062459 83 4009ft 108kts
28-Dec-20 14:42 33.796733 -118.030548 63 4008ft 111kts
28-Dec-20 14:43 33.810777 -117.996250 67 4010ft 112kts
28-Dec-20 14:44 33.824685 -117.960327 67 4012ft 114kts
28-Dec-20 14:45 33.839697 -117.922587 67 4013ft 115kts
28-Dec-20 14:46 33.854247 -117.888406 68 4010ft 114kts
28-Dec-20 14:47 33.868046 -117.853528 67 3999ft 115kts
28-Dec-20 14:48 33.882097 -117.818576 68 4001ft 113kts
28-Dec-20 14:49 33.895570 -117.785165 68 4005ft 107kts
28-Dec-20 14:50 33.908674 -117.753435 68 4007ft 102kts
28-Dec-20 14:51 33.920467 -117.722906 68 4010ft 98kts
28-Dec-20 14:52 33.941551 -117.701363 35 4015ft 101kts
28-Dec-20 14:53 33.965836 -117.702870 281 4009ft 114kts
28-Dec-20 14:54 33.945701 -117.717558 167 3978ft 101kts
28-Dec-20 14:55 33.915648 -117.714767 182 3495ft 111kts
28-Dec-20 14:56 33.889849 -117.731289 200 3498ft 101kts
28-Dec-20 14:57 33.864991 -117.747596 199 3441ft 103kts
28-Dec-20 14:58 33.838891 -117.764254 199 3329ft 108kts
28-Dec-20 14:59 33.812296 -117.781302 199 2992ft 109kts
28-Dec-20 15:00 33.784957 -117.798813 200 2398ft 112kts
28-Dec-20 15:01 33.758709 -117.815629 201 1801ft 105kts
28-Dec-20 15:02 33.733108 -117.831990 203 1231ft 102kts
28-Dec-20 15:03 33.713693 -117.844550 200 840ft 70kts
28-Dec-20 15:04 33.696409 -117.855807 199 445ft 67kts
28-Dec-20 15:05 33.680898 -117.865566 199 111ft 60kts
28-Dec-20 15:06 33.675916 -117.869756 279 60ft 0kts
28-Dec-20 15:07 33.676146 -117.870266 299 60ft 9kts

Navigation Log

Ident Type
Flight plan parsing failed, navigation log unavailable